sensor_id;sensor_type;location;lat;lon;timestamp;pressure;altitude;pressure_sealevel;temperature;humidity
51099;BME280;37146;48.210;16.234;2023-03-01T00:01:59;99843.31;;;-3.52;100.00
51099;BME280;37146;48.210;16.234;2023-03-01T00:04:24;99841.38;;;-3.64;100.00
51099;BME280;37146;48.210;16.234;2023-03-01T00:06:49;99845.00;;;-3.58;100.00
51099;BME280;37146;48.210;16.234;2023-03-01T00:09:15;99843.31;;;-3.52;100.00
51099;BME280;37146;48.210;16.234;2023-03-01T00:11:40;99834.38;;;-3.67;100.00
51099;BME280;37146;48.210;16.234;2023-03-01T00:14:06;99836.38;;;-3.53;100.00
51099;BME280;37146;48.210;16.234;2023-03-01T00:16:41;99841.47;;;-3.60;100.00
51099;BME280;37146;48.210;16.234;2023-03-01T00:19:07;99833.59;;;-3.61;100.00
51099;BME280;37146;48.210;16.234;2023-03-01T00:21:33;99837.22;;;-3.53;100.00
51099;BME280;37146;48.210;16.234;2023-03-01T00:24:00;99837.34;;;-3.47;100.00
51099;BME280;37146;48.210;16.234;2023-03-01T00:26:26;99833.84;;;-3.47;100.00
51099;BME280;37146;48.210;16.234;2023-03-01T00:28:51;99840.00;;;-3.45;100.00
51099;BME280;37146;48.210;16.234;2023-03-01T00:31:19;99837.44;;;-3.42;100.00
51099;BME280;37146;48.210;16.234;2023-03-01T00:33:44;99833.69;;;-3.57;100.00
51099;BME280;37146;48.210;16.234;2023-03-01T00:36:10;99828.75;;;-3.85;100.00
51099;BME280;37146;48.210;16.234;2023-03-01T00:38:36;99831.44;;;-3.82;100.00
51099;BME280;37146;48.210;16.234;2023-03-01T00:41:05;99823.66;;;-3.79;100.00
51099;BME280;37146;48.210;16.234;2023-03-01T00:43:30;99832.19;;;-3.88;100.00
51099;BME280;37146;48.210;16.234;2023-03-01T00:45:55;99825.13;;;-3.94;100.00
51099;BME280;37146;48.210;16.234;2023-03-01T00:48:21;99815.50;;;-3.95;100.00
51099;BME280;37146;48.210;16.234;2023-03-01T00:50:46;99813.63;;;-4.02;100.00
51099;BME280;37146;48.210;16.234;2023-03-01T00:53:11;99812.88;;;-3.96;100.00
51099;BME280;37146;48.210;16.234;2023-03-01T00:55:36;99812.38;;;-3.78;100.00
51099;BME280;37146;48.210;16.234;2023-03-01T00:58:02;99797.09;;;-4.02;100.00
51099;BME280;37146;48.210;16.234;2023-03-01T01:00:27;99801.66;;;-3.91;100.00
51099;BME280;37146;48.210;16.234;2023-03-01T01:02:52;99809.41;;;-3.97;100.00
51099;BME280;37146;48.210;16.234;2023-03-01T01:05:18;99802.31;;;-4.02;100.00
51099;BME280;37146;48.210;16.234;2023-03-01T01:07:45;99795.03;;;-4.17;100.00
51099;BME280;37146;48.210;16.234;2023-03-01T01:10:11;99802.16;;;-4.10;100.00
51099;BME280;37146;48.210;16.234;2023-03-01T01:12:41;99806.19;;;-4.26;100.00
51099;BME280;37146;48.210;16.234;2023-03-01T01:15:07;99804.63;;;-4.16;100.00
51099;BME280;37146;48.210;16.234;2023-03-01T01:17:32;99802.72;;;-4.25;100.00
51099;BME280;37146;48.210;16.234;2023-03-01T01:19:57;99788.34;;;-4.03;100.00
51099;BME280;37146;48.210;16.234;2023-03-01T01:22:23;99800.59;;;-4.00;100.00
51099;BME280;37146;48.210;16.234;2023-03-01T01:24:48;99809.06;;;-4.12;100.00
51099;BME280;37146;48.210;16.234;2023-03-01T01:27:13;99810.69;;;-4.19;100.00
51099;BME280;37146;48.210;16.234;2023-03-01T01:29:38;99809.16;;;-4.09;100.00
51099;BME280;37146;48.210;16.234;2023-03-01T01:32:04;99800.47;;;-4.08;100.00
51099;BME280;37146;48.210;16.234;2023-03-01T01:34:29;99794.66;;;-3.93;100.00
51099;BME280;37146;48.210;16.234;2023-03-01T01:36:54;99783.97;;;-4.04;100.00
51099;BME280;37146;48.210;16.234;2023-03-01T01:39:22;99782.97;;;-4.11;100.00
51099;BME280;37146;48.210;16.234;2023-03-01T01:41:48;99780.50;;;-4.03;100.00
51099;BME280;37146;48.210;16.234;2023-03-01T01:46:40;99776.94;;;-4.08;100.00
51099;BME280;37146;48.210;16.234;2023-03-01T01:51:39;99772.16;;;-3.85;100.00
51099;BME280;37146;48.210;16.234;2023-03-01T01:54:15;99779.22;;;-3.79;100.00
51099;BME280;37146;48.210;16.234;2023-03-01T01:56:44;99784.38;;;-3.82;100.00
51099;BME280;37146;48.210;16.234;2023-03-01T01:59:12;99780.16;;;-3.76;100.00
51099;BME280;37146;48.210;16.234;2023-03-01T02:01:38;99779.22;;;-3.79;100.00
51099;BME280;37146;48.210;16.234;2023-03-01T02:04:04;99771.50;;;-3.73;100.00
51099;BME280;37146;48.210;16.234;2023-03-01T02:06:32;99775.09;;;-3.68;100.00
51099;BME280;37146;48.210;16.234;2023-03-01T02:08:59;99769.63;;;-3.79;100.00
51099;BME280;37146;48.210;16.234;2023-03-01T02:11:27;99761.78;;;-3.80;100.00
51099;BME280;37146;48.210;16.234;2023-03-01T02:13:52;99765.47;;;-3.69;100.00
51099;BME280;37146;48.210;16.234;2023-03-01T02:16:19;99768.88;;;-3.73;100.00
51099;BME280;37146;48.210;16.234;2023-03-01T02:18:44;99770.88;;;-3.58;100.00
51099;BME280;37146;48.210;16.234;2023-03-01T02:23:47;99771.00;;;-3.52;100.00
51099;BME280;37146;48.210;16.234;2023-03-01T02:26:20;99764.91;;;-3.51;100.00
51099;BME280;37146;48.210;16.234;2023-03-01T02:28:49;99775.16;;;-3.65;100.00
51099;BME280;37146;48.210;16.234;2023-03-01T02:31:16;99768.94;;;-3.68;100.00
51099;BME280;37146;48.210;16.234;2023-03-01T02:34:00;99762.53;;;-3.37;100.00
51099;BME280;37146;48.210;16.234;2023-03-01T02:36:30;99754.00;;;-3.25;100.00
51099;BME280;37146;48.210;16.234;2023-03-01T02:38:57;99747.63;;;-3.41;100.00
51099;BME280;37146;48.210;16.234;2023-03-01T02:41:23;99750.50;;;-3.27;100.00
51099;BME280;37146;48.210;16.234;2023-03-01T02:43:49;99752.19;;;-3.31;100.00
51099;BME280;37146;48.210;16.234;2023-03-01T02:46:16;99747.81;;;-3.32;100.00
51099;BME280;37146;48.210;16.234;2023-03-01T02:48:43;99753.06;;;-3.30;100.00
51099;BME280;37146;48.210;16.234;2023-03-01T02:56:35;99747.63;;;-3.41;100.00
51099;BME280;37146;48.210;16.234;2023-03-01T02:59:01;99749.38;;;-3.43;100.00
51099;BME280;37146;48.210;16.234;2023-03-01T03:01:27;99737.38;;;-3.30;100.00
51099;BME280;37146;48.210;16.234;2023-03-01T03:04:01;99739.00;;;-3.35;100.00
51099;BME280;37146;48.210;16.234;2023-03-01T03:06:27;99742.47;;;-3.38;100.00
51099;BME280;37146;48.210;16.234;2023-03-01T03:08:52;99750.56;;;-3.22;100.00
51099;BME280;37146;48.210;16.234;2023-03-01T03:11:17;99742.72;;;-3.22;100.00
51099;BME280;37146;48.210;16.234;2023-03-01T03:13:43;99742.66;;;-3.26;100.00
51099;BME280;37146;48.210;16.234;2023-03-01T03:16:12;99742.66;;;-3.26;100.00
51099;BME280;37146;48.210;16.234;2023-03-01T03:18:38;99737.34;;;-3.32;100.00
51099;BME280;37146;48.210;16.234;2023-03-01T03:21:03;99731.63;;;-3.06;100.00
51099;BME280;37146;48.210;16.234;2023-03-01T03:23:32;99722.13;;;-3.01;100.00
51099;BME280;37146;48.210;16.234;2023-03-01T03:25:57;99718.78;;;-2.90;100.00
51099;BME280;37146;48.210;16.234;2023-03-01T03:28:22;99720.53;;;-2.88;100.00
51099;BME280;37146;48.210;16.234;2023-03-01T03:30:47;99720.72;;;-2.75;100.00
51099;BME280;37146;48.210;16.234;2023-03-01T03:33:13;99713.59;;;-2.84;100.00
51099;BME280;37146;48.210;16.234;2023-03-01T03:35:43;99710.84;;;-2.95;100.00
51099;BME280;37146;48.210;16.234;2023-03-01T03:38:09;99715.91;;;-3.09;100.00
51099;BME280;37146;48.210;16.234;2023-03-01T03:40:41;99715.09;;;-3.03;100.00
51099;BME280;37146;48.210;16.234;2023-03-01T03:43:08;99719.69;;;-2.88;100.00
51099;BME280;37146;48.210;16.234;2023-03-01T03:45:34;99720.44;;;-2.96;100.00
51099;BME280;37146;48.210;16.234;2023-03-01T03:48:00;99719.50;;;-3.01;100.00
51099;BME280;37146;48.210;16.234;2023-03-01T03:50:26;99717.81;;;-2.96;100.00
51099;BME280;37146;48.210;16.234;2023-03-01T03:52:51;99716.75;;;-3.08;100.00
51099;BME280;37146;48.210;16.234;2023-03-01T03:55:16;99707.88;;;-3.20;100.00
51099;BME280;37146;48.210;16.234;2023-03-01T03:57:44;99716.03;;;-2.97;100.00
51099;BME280;37146;48.210;16.234;2023-03-01T04:00:16;99708.31;;;-2.90;100.00
51099;BME280;37146;48.210;16.234;2023-03-01T04:02:42;99707.34;;;-2.96;100.00
51099;BME280;37146;48.210;16.234;2023-03-01T04:05:08;99710.88;;;-2.93;100.00
51099;BME280;37146;48.210;16.234;2023-03-01T04:07:37;99705.56;;;-2.98;100.00
51099;BME280;37146;48.210;16.234;2023-03-01T04:10:03;99706.31;;;-3.07;100.00
51099;BME280;37146;48.210;16.234;2023-03-01T04:12:29;99714.31;;;-2.98;100.00
51099;BME280;37146;48.210;16.234;2023-03-01T04:14:54;99714.56;;;-2.79;100.00
51099;BME280;37146;48.210;16.234;2023-03-01T04:17:19;99713.59;;;-2.86;100.00
51099;BME280;37146;48.210;16.234;2023-03-01T04:19:44;99710.31;;;-2.71;100.00
51099;BME280;37146;48.210;16.234;2023-03-01T04:22:13;99711.03;;;-2.81;100.00
51099;BME280;37146;48.210;16.234;2023-03-01T04:24:43;99709.34;;;-2.79;100.00
51099;BME280;37146;48.210;16.234;2023-03-01T04:27:08;99715.53;;;-2.72;100.00
51099;BME280;37146;48.210;16.234;2023-03-01T04:29:34;99712.00;;;-2.74;100.00
51099;BME280;37146;48.210;16.234;2023-03-01T04:31:59;99717.13;;;-2.81;100.00
51099;BME280;37146;48.210;16.234;2023-03-01T04:34:24;99712.06;;;-2.68;100.00
51099;BME280;37146;48.210;16.234;2023-03-01T04:36:51;99709.59;;;-2.57;100.00
51099;BME280;37146;48.210;16.234;2023-03-01T04:39:16;99712.94;;;-2.69;100.00
51099;BME280;37146;48.210;16.234;2023-03-01T04:41:42;99709.47;;;-2.68;100.00
51099;BME280;37146;48.210;16.234;2023-03-01T04:44:10;99714.06;;;-2.52;100.00
51099;BME280;37146;48.210;16.234;2023-03-01T04:46:35;99706.25;;;-2.47;100.00
51099;BME280;37146;48.210;16.234;2023-03-01T04:49:01;99706.19;;;-2.50;100.00
51099;BME280;37146;48.210;16.234;2023-03-01T04:51:27;99707.91;;;-2.52;100.00
51099;BME280;37146;48.210;16.234;2023-03-01T04:53:52;99701.75;;;-2.57;100.00
51099;BME280;37146;48.210;16.234;2023-03-01T04:56:17;99713.81;;;-2.70;100.00
51099;BME280;37146;48.210;16.234;2023-03-01T04:58:43;99717.38;;;-2.64;100.00
51099;BME280;37146;48.210;16.234;2023-03-01T05:01:12;99715.53;;;-2.72;100.00
51099;BME280;37146;48.210;16.234;2023-03-01T05:03:43;99706.94;;;-2.62;100.00
51099;BME280;37146;48.210;16.234;2023-03-01T05:06:09;99718.34;;;-2.57;100.00
51099;BME280;37146;48.210;16.234;2023-03-01T05:08:35;99714.84;;;-2.57;100.00
51099;BME280;37146;48.210;16.234;2023-03-01T05:11:03;99723.66;;;-2.51;100.00
51099;BME280;37146;48.210;16.234;2023-03-01T05:13:29;99722.00;;;-2.44;100.00
51099;BME280;37146;48.210;16.234;2023-03-01T05:15:55;99721.16;;;-2.41;100.00
51099;BME280;37146;48.210;16.234;2023-03-01T05:18:21;99721.97;;;-2.47;100.00
51099;BME280;37146;48.210;16.234;2023-03-01T05:20:46;99721.00;;;-2.52;100.00
51099;BME280;37146;48.210;16.234;2023-03-01T05:23:12;99727.16;;;-2.50;100.00
51099;BME280;37146;48.210;16.234;2023-03-01T05:25:37;99721.09;;;-2.46;100.00
51099;BME280;37146;48.210;16.234;2023-03-01T05:28:05;99727.25;;;-2.41;100.00
51099;BME280;37146;48.210;16.234;2023-03-01T05:30:31;99722.06;;;-2.38;100.00
51099;BME280;37146;48.210;16.234;2023-03-01T05:32:57;99722.06;;;-2.39;100.00
51099;BME280;37146;48.210;16.234;2023-03-01T05:35:23;99736.19;;;-2.28;100.00
51099;BME280;37146;48.210;16.234;2023-03-01T05:37:48;99730.84;;;-2.36;100.00
51099;BME280;37146;48.210;16.234;2023-03-01T05:40:15;99730.03;;;-2.31;100.00
51099;BME280;37146;48.210;16.234;2023-03-01T05:42:44;99737.88;;;-2.31;100.00
51099;BME280;37146;48.210;16.234;2023-03-01T05:45:10;99730.78;;;-2.39;100.00
51099;BME280;37146;48.210;16.234;2023-03-01T05:47:35;99742.16;;;-2.37;100.00
51099;BME280;37146;48.210;16.234;2023-03-01T05:50:01;99746.72;;;-2.20;100.00
51099;BME280;37146;48.210;16.234;2023-03-01T05:52:26;99741.63;;;-2.09;100.00
51099;BME280;37146;48.210;16.234;2023-03-01T05:54:51;99745.97;;;-2.11;100.00
51099;BME280;37146;48.210;16.234;2023-03-01T05:57:17;99748.56;;;-2.13;100.00
51099;BME280;37146;48.210;16.234;2023-03-01T05:59:42;99746.75;;;-2.17;100.00
51099;BME280;37146;48.210;16.234;2023-03-01T06:02:07;99741.53;;;-2.17;100.00
51099;BME280;37146;48.210;16.234;2023-03-01T06:04:32;99747.66;;;-2.15;100.00
51099;BME280;37146;48.210;16.234;2023-03-01T06:06:58;99745.09;;;-2.12;100.00
51099;BME280;37146;48.210;16.234;2023-03-01T06:09:23;99748.63;;;-2.07;100.00
51099;BME280;37146;48.210;16.234;2023-03-01T06:11:48;99756.59;;;-2.00;100.00
51099;BME280;37146;48.210;16.234;2023-03-01T06:14:13;99755.59;;;-2.10;99.55
51099;BME280;37146;48.210;16.234;2023-03-01T06:16:39;99761.78;;;-2.04;100.00
51099;BME280;37146;48.210;16.234;2023-03-01T06:19:04;99755.63;;;-2.06;100.00
51099;BME280;37146;48.210;16.234;2023-03-01T06:21:30;99754.88;;;-1.95;100.00
51099;BME280;37146;48.210;16.234;2023-03-01T06:23:55;99742.56;;;-2.01;100.00
51099;BME280;37146;48.210;16.234;2023-03-01T06:26:20;99748.88;;;-1.85;100.00
51099;BME280;37146;48.210;16.234;2023-03-01T06:28:46;99742.81;;;-1.81;100.00
51099;BME280;37146;48.210;16.234;2023-03-01T06:31:11;99741.94;;;-1.80;100.00
51099;BME280;37146;48.210;16.234;2023-03-01T06:33:36;99744.69;;;-1.67;100.00
51099;BME280;37146;48.210;16.234;2023-03-01T06:36:01;99738.59;;;-1.66;100.00
51099;BME280;37146;48.210;16.234;2023-03-01T06:38:27;99744.78;;;-1.57;100.00
51099;BME280;37146;48.210;16.234;2023-03-01T06:40:52;99743.91;;;-1.57;100.00
51099;BME280;37146;48.210;16.234;2023-03-01T06:43:19;99744.94;;;-1.40;100.00
51099;BME280;37146;48.210;16.234;2023-03-01T06:45:44;99748.44;;;-1.37;100.00
51099;BME280;37146;48.210;16.234;2023-03-01T06:48:10;99749.28;;;-1.42;100.00
51099;BME280;37146;48.210;16.234;2023-03-01T06:50:35;99752.84;;;-1.36;99.04
51099;BME280;37146;48.210;16.234;2023-03-01T06:53:01;99759.03;;;-1.27;100.00
51099;BME280;37146;48.210;16.234;2023-03-01T06:55:26;99749.38;;;-1.32;100.00
51099;BME280;37146;48.210;16.234;2023-03-01T06:57:55;99761.59;;;-1.34;100.00
51099;BME280;37146;48.210;16.234;2023-03-01T07:00:21;99751.22;;;-1.19;98.53
51099;BME280;37146;48.210;16.234;2023-03-01T07:02:46;99748.69;;;-1.08;97.12
51099;BME280;37146;48.210;16.234;2023-03-01T07:05:12;99763.56;;;-1.05;96.71
51099;BME280;37146;48.210;16.234;2023-03-01T07:07:37;99759.25;;;-0.97;97.13
51099;BME280;37146;48.210;16.234;2023-03-01T07:10:02;99754.84;;;-1.03;96.93
51099;BME280;37146;48.210;16.234;2023-03-01T07:12:27;99750.53;;;-0.93;97.30
51099;BME280;37146;48.210;16.234;2023-03-01T07:14:53;99754.00;;;-1.00;98.37
51099;BME280;37146;48.210;16.234;2023-03-01T07:17:18;99753.16;;;-0.93;97.52
51099;BME280;37146;48.210;16.234;2023-03-01T07:19:43;99754.06;;;-0.88;97.46
51099;BME280;37146;48.210;16.234;2023-03-01T07:22:09;99749.69;;;-0.86;98.78
51099;BME280;37146;48.210;16.234;2023-03-01T07:24:35;99756.72;;;-0.86;97.68
51099;BME280;37146;48.210;16.234;2023-03-01T07:27:00;99754.06;;;-0.88;96.57
51099;BME280;37146;48.210;16.234;2023-03-01T07:29:25;99755.03;;;-0.73;96.84
51099;BME280;37146;48.210;16.234;2023-03-01T07:31:50;99748.13;;;-0.59;97.58
51099;BME280;37146;48.210;16.234;2023-03-01T07:34:16;99739.34;;;-0.67;97.20
51099;BME280;37146;48.210;16.234;2023-03-01T07:36:41;99739.41;;;-0.49;97.33
51099;BME280;37146;48.210;16.234;2023-03-01T07:39:08;99739.38;;;-0.55;95.85
51099;BME280;37146;48.210;16.234;2023-03-01T07:41:33;99742.94;;;-0.47;94.41
51099;BME280;37146;48.210;16.234;2023-03-01T07:43:58;99746.47;;;-0.40;93.81
51099;BME280;37146;48.210;16.234;2023-03-01T07:46:24;99739.53;;;-0.24;93.82
51099;BME280;37146;48.210;16.234;2023-03-01T07:48:49;99739.59;;;-0.11;93.35
51099;BME280;37146;48.210;16.234;2023-03-01T07:51:14;99742.19;;;-0.14;91.40
51099;BME280;37146;48.210;16.234;2023-03-01T07:53:39;99735.19;;;-0.17;90.53
51099;BME280;37146;48.210;16.234;2023-03-01T07:56:06;99736.94;;;-0.08;88.96
51099;BME280;37146;48.210;16.234;2023-03-01T07:58:33;99743.13;;;0.03;87.30
51099;BME280;37146;48.210;16.234;2023-03-01T08:01:00;99745.75;;;0.02;85.34
51099;BME280;37146;48.210;16.234;2023-03-01T08:03:26;99738.78;;;0.22;85.89
51099;BME280;37146;48.210;16.234;2023-03-01T08:05:51;99734.44;;;0.32;86.25
51099;BME280;37146;48.210;16.234;2023-03-01T08:08:16;99737.91;;;0.29;84.78
51099;BME280;37146;48.210;16.234;2023-03-01T08:10:41;99742.31;;;0.35;83.45
51099;BME280;37146;48.210;16.234;2023-03-01T08:13:07;99738.81;;;0.49;84.03
51099;BME280;37146;48.210;16.234;2023-03-01T08:15:32;99737.94;;;0.42;83.44
51099;BME280;37146;48.210;16.234;2023-03-01T08:17:57;99742.34;;;0.58;81.93
51099;BME280;37146;48.210;16.234;2023-03-01T08:20:22;99737.94;;;0.54;80.83
51099;BME280;37146;48.210;16.234;2023-03-01T08:22:47;99730.91;;;0.49;79.27
51099;BME280;37146;48.210;16.234;2023-03-01T08:25:13;99734.44;;;0.57;78.65
51099;BME280;37146;48.210;16.234;2023-03-01T08:27:38;99737.06;;;0.65;78.34
51099;BME280;37146;48.210;16.234;2023-03-01T08:30:03;99737.09;;;0.72;77.80
51099;BME280;37146;48.210;16.234;2023-03-01T08:32:29;99732.66;;;0.90;76.92
51099;BME280;37146;48.210;16.234;2023-03-01T08:34:54;99732.69;;;0.99;77.13
51099;BME280;37146;48.210;16.234;2023-03-01T08:37:19;99718.59;;;1.19;76.81
51099;BME280;37146;48.210;16.234;2023-03-01T08:39:44;99725.56;;;1.35;74.95
51099;BME280;37146;48.210;16.234;2023-03-01T08:42:09;99714.13;;;1.52;75.31
51099;BME280;37146;48.210;16.234;2023-03-01T08:44:35;99723.47;;;2.15;71.77
51099;BME280;37146;48.210;16.234;2023-03-01T08:47:00;99712.97;;;3.18;67.91
51099;BME280;37146;48.210;16.234;2023-03-01T08:49:27;99711.03;;;4.07;65.02
51099;BME280;37146;48.210;16.234;2023-03-01T08:51:52;99698.72;;;6.43;57.08
51099;BME280;37146;48.210;16.234;2023-03-01T08:54:19;99687.63;;;6.97;54.98
51099;BME280;37146;48.210;16.234;2023-03-01T08:56:44;99687.22;;;8.36;51.82
51099;BME280;37146;48.210;16.234;2023-03-01T08:59:10;99687.63;;;7.32;51.57
51099;BME280;37146;48.210;16.234;2023-03-01T09:01:36;99690.31;;;8.22;49.93
51099;BME280;37146;48.210;16.234;2023-03-01T09:04:02;99689.50;;;8.20;49.31
51099;BME280;37146;48.210;16.234;2023-03-01T09:06:29;99690.75;;;8.36;48.67
51099;BME280;37146;48.210;16.234;2023-03-01T09:08:55;99680.63;;;7.28;49.50
51099;BME280;37146;48.210;16.234;2023-03-01T09:11:21;99689.78;;;7.81;49.08
51099;BME280;37146;48.210;16.234;2023-03-01T09:13:47;99679.09;;;6.85;51.15
51099;BME280;37146;48.210;16.234;2023-03-01T09:16:13;99685.00;;;7.92;48.63
51099;BME280;37146;48.210;16.234;2023-03-01T09:18:38;99678.34;;;8.07;48.50
51099;BME280;37146;48.210;16.234;2023-03-01T09:21:05;99674.53;;;8.16;47.70
51099;BME280;37146;48.210;16.234;2023-03-01T09:23:37;99670.72;;;9.56;45.62
51099;BME280;37146;48.210;16.234;2023-03-01T09:26:04;99674.44;;;6.94;50.06
51099;BME280;37146;48.210;16.234;2023-03-01T09:28:29;99669.13;;;6.58;50.51
51099;BME280;37146;48.210;16.234;2023-03-01T09:30:57;99666.50;;;7.57;49.86
51099;BME280;37146;48.210;16.234;2023-03-01T09:33:22;99658.03;;;7.10;49.62
51099;BME280;37146;48.210;16.234;2023-03-01T09:35:48;99653.84;;;8.53;47.59
51099;BME280;37146;48.210;16.234;2023-03-01T09:38:13;99651.16;;;8.53;47.50
51099;BME280;37146;48.210;16.234;2023-03-01T09:40:41;99654.19;;;7.83;48.23
51099;BME280;37146;48.210;16.234;2023-03-01T09:43:11;99646.34;;;9.89;45.69
51099;BME280;37146;48.210;16.234;2023-03-01T09:45:41;99659.19;;;9.30;45.70
51099;BME280;37146;48.210;16.234;2023-03-01T09:48:11;99660.63;;;7.76;48.53
51099;BME280;37146;48.210;16.234;2023-03-01T09:50:39;99649.03;;;7.47;48.82
51099;BME280;37146;48.210;16.234;2023-03-01T09:53:07;99644.06;;;7.95;47.45
51099;BME280;37146;48.210;16.234;2023-03-01T10:00:47;99640.94;;;6.15;53.04
51099;BME280;37146;48.210;16.234;2023-03-01T10:03:16;99641.34;;;5.54;54.24
51099;BME280;37146;48.210;16.234;2023-03-01T10:10:56;99626.03;;;4.26;59.27
51099;BME280;37146;48.210;16.234;2023-03-01T10:15:57;99632.78;;;3.89;59.84
51099;BME280;37146;48.210;16.234;2023-03-01T10:18:27;99628.91;;;4.10;59.71
51099;BME280;37146;48.210;16.234;2023-03-01T10:21:07;99624.16;;;4.31;59.84
51099;BME280;37146;48.210;16.234;2023-03-01T10:23:34;99624.50;;;4.09;60.47
51099;BME280;37146;48.210;16.234;2023-03-01T10:31:19;99630.13;;;3.87;60.54
51099;BME280;37146;48.210;16.234;2023-03-01T10:33:47;99607.69;;;4.13;60.39
51099;BME280;37146;48.210;16.234;2023-03-01T10:36:16;99613.09;;;4.06;61.16
51099;BME280;37146;48.210;16.234;2023-03-01T10:38:52;99603.13;;;4.22;60.35
51099;BME280;37146;48.210;16.234;2023-03-01T10:41:19;99594.28;;;4.74;59.22
51099;BME280;37146;48.210;16.234;2023-03-01T10:46:42;99597.81;;;4.75;57.79
51099;BME280;37146;48.210;16.234;2023-03-01T10:49:14;99590.94;;;5.11;57.36
51099;BME280;37146;48.210;16.234;2023-03-01T10:51:41;99587.25;;;5.19;57.79
51099;BME280;37146;48.210;16.234;2023-03-01T10:54:17;99571.97;;;5.32;57.42
51099;BME280;37146;48.210;16.234;2023-03-01T10:56:47;99574.06;;;5.14;57.02
51099;BME280;37146;48.210;16.234;2023-03-01T10:59:25;99568.84;;;4.64;58.28
51099;BME280;37146;48.210;16.234;2023-03-01T11:04:34;99563.97;;;4.41;59.34
51099;BME280;37146;48.210;16.234;2023-03-01T11:07:00;99562.53;;;4.23;59.77
51099;BME280;37146;48.210;16.234;2023-03-01T11:09:25;99550.69;;;4.44;59.82
51099;BME280;37146;48.210;16.234;2023-03-01T11:11:57;99552.75;;;5.20;58.75
51099;BME280;37146;48.210;16.234;2023-03-01T11:14:25;99539.69;;;5.09;58.01
51099;BME280;37146;48.210;16.234;2023-03-01T11:17:04;99538.56;;;4.77;59.10
51099;BME280;37146;48.210;16.234;2023-03-01T11:19:30;99533.56;;;5.50;56.78
51099;BME280;37146;48.210;16.234;2023-03-01T11:24:27;99538.28;;;4.93;57.66
51099;BME280;37146;48.210;16.234;2023-03-01T11:26:54;99533.25;;;5.23;57.76
51099;BME280;37146;48.210;16.234;2023-03-01T11:29:27;99536.16;;;5.10;57.49
51099;BME280;37146;48.210;16.234;2023-03-01T11:31:56;99534.13;;;4.79;57.63
51099;BME280;37146;48.210;16.234;2023-03-01T11:34:25;99529.44;;;5.36;57.59
51099;BME280;37146;48.210;16.234;2023-03-01T11:36:58;99543.03;;;4.75;57.35
51099;BME280;37146;48.210;16.234;2023-03-01T11:39:30;99538.41;;;4.87;58.39
51099;BME280;37146;48.210;16.234;2023-03-01T11:42:02;99536.72;;;4.83;57.90
51099;BME280;37146;48.210;16.234;2023-03-01T11:44:30;99536.81;;;4.76;58.68
51099;BME280;37146;48.210;16.234;2023-03-01T11:47:06;99532.53;;;4.71;58.49
51099;BME280;37146;48.210;16.234;2023-03-01T12:02:46;99539.38;;;4.83;59.25
51099;BME280;37146;48.210;16.234;2023-03-01T12:10:23;99536.94;;;5.16;58.67
51099;BME280;37146;48.210;16.234;2023-03-01T12:15:39;99530.19;;;5.01;59.98
51099;BME280;37146;48.210;16.234;2023-03-01T12:18:13;99529.25;;;5.03;59.51
51099;BME280;37146;48.210;16.234;2023-03-01T12:20:51;99524.25;;;4.88;59.40
51099;BME280;37146;48.210;16.234;2023-03-01T12:26:20;99523.78;;;5.09;60.28
51099;BME280;37146;48.210;16.234;2023-03-01T12:34:03;99498.66;;;5.29;59.87
51099;BME280;37146;48.210;16.234;2023-03-01T12:36:45;99502.47;;;5.55;59.91
51099;BME280;37146;48.210;16.234;2023-03-01T12:49:40;99496.03;;;5.67;60.50
51099;BME280;37146;48.210;16.234;2023-03-01T12:52:11;99499.09;;;5.48;60.02
51099;BME280;37146;48.210;16.234;2023-03-01T12:54:39;99495.34;;;5.57;60.82
51099;BME280;37146;48.210;16.234;2023-03-01T12:59:48;99489.88;;;6.02;59.40
51099;BME280;37146;48.210;16.234;2023-03-01T13:02:21;99483.66;;;6.37;58.77
51099;BME280;37146;48.210;16.234;2023-03-01T13:12:45;99461.66;;;6.31;58.53
51099;BME280;37146;48.210;16.234;2023-03-01T13:17:55;99470.19;;;6.76;58.93
51099;BME280;37146;48.210;16.234;2023-03-01T13:20:26;99472.41;;;6.60;57.91
51099;BME280;37146;48.210;16.234;2023-03-01T13:23:03;99473.44;;;6.54;58.36
51099;BME280;37146;48.210;16.234;2023-03-01T13:25:29;99464.91;;;6.74;58.37
51099;BME280;37146;48.210;16.234;2023-03-01T13:28:32;99466.50;;;6.50;59.05
51099;BME280;37146;48.210;16.234;2023-03-01T13:30:39;99457.25;;;6.30;58.72
51099;BME280;37146;48.210;16.234;2023-03-01T13:34:06;99466.94;;;6.33;59.16
51099;BME280;37146;48.210;16.234;2023-03-01T13:36:01;99458.66;;;6.44;60.76
51099;BME280;37146;48.210;16.234;2023-03-01T13:38:44;99449.44;;;6.57;59.37
51099;BME280;37146;48.210;16.234;2023-03-01T13:41:10;99454.06;;;6.82;59.87
51099;BME280;37146;48.210;16.234;2023-03-01T13:43:37;99450.78;;;7.04;60.04
51099;BME280;37146;48.210;16.234;2023-03-01T13:46:07;99445.00;;;6.58;59.06
51099;BME280;37146;48.210;16.234;2023-03-01T13:48:33;99452.78;;;6.32;60.35
51099;BME280;37146;48.210;16.234;2023-03-01T13:51:00;99454.84;;;6.21;60.95
51099;BME280;37146;48.210;16.234;2023-03-01T13:53:29;99438.97;;;6.51;60.91
51099;BME280;37146;48.210;16.234;2023-03-01T13:55:56;99447.69;;;6.56;60.59
51099;BME280;37146;48.210;16.234;2023-03-01T13:58:24;99440.28;;;6.68;60.23
51099;BME280;37146;48.210;16.234;2023-03-01T14:01:06;99439.53;;;6.31;60.68
51099;BME280;37146;48.210;16.234;2023-03-01T14:03:32;99428.56;;;6.75;60.78
51099;BME280;37146;48.210;16.234;2023-03-01T14:06:32;99424.06;;;6.77;60.32
51099;BME280;37146;48.210;16.234;2023-03-01T14:08:50;99424.56;;;6.28;60.70
51099;BME280;37146;48.210;16.234;2023-03-01T14:11:26;99412.59;;;6.45;61.44
51099;BME280;37146;48.210;16.234;2023-03-01T14:21:45;99406.94;;;6.87;59.83
51099;BME280;37146;48.210;16.234;2023-03-01T14:24:16;99409.22;;;6.70;60.37
51099;BME280;37146;48.210;16.234;2023-03-01T14:26:42;99405.47;;;6.45;61.02
51099;BME280;37146;48.210;16.234;2023-03-01T14:29:22;99403.44;;;6.55;61.46